Time;durP1;ratioP1;P1;durP2;ratioP2;P2;SDS_P1;SDS_P2;PMS_P1;PMS_P2;Temp;Humidity;BMP_temperature;BMP_pressure;BME280_temperature;BME280_humidity;BME280_pressure;Samples;Min_cycle;Max_cycle;Signal;HPM_P1;HPM_P2
2021/06/15 00:01:54;;;;;;;7.30;3.30;;;;;;;;;;5093947;28;20474;-71
2021/06/15 00:04:20;;;;;;;5.38;3.17;;;;;;;;;;5093532;28;20182;-71
2021/06/15 00:06:47;;;;;;;5.53;3.50;;;;;;;;;;5092836;28;20027;-71
2021/06/15 00:09:13;;;;;;;7.72;4.20;;;;;;;;;;5093726;28;20485;-71
2021/06/15 00:11:39;;;;;;;7.70;3.35;;;;;;;;;;5093716;28;20122;-71
2021/06/15 00:14:05;;;;;;;7.13;3.40;;;;;;;;;;5093693;28;20047;-71
2021/06/15 00:16:31;;;;;;;8.05;2.80;;;;;;;;;;5093603;28;20032;-71
2021/06/15 00:18:57;;;;;;;7.05;3.45;;;;;;;;;;5093468;28;20024;-71
2021/06/15 00:21:24;;;;;;;7.78;3.28;;;;;;;;;;5093575;28;20023;-72
2021/06/15 00:23:50;;;;;;;6.55;3.33;;;;;;;;;;5092519;28;20069;-71
2021/06/15 00:26:16;;;;;;;4.18;3.50;;;;;;;;;;5093427;28;20107;-72
2021/06/15 00:28:42;;;;;;;8.23;3.25;;;;;;;;;;5093373;28;20032;-71
2021/06/15 00:31:08;;;;;;;5.70;3.75;;;;;;;;;;5093248;28;20095;-71
2021/06/15 00:33:34;;;;;;;5.65;3.30;;;;;;;;;;5091991;28;20016;-71
2021/06/15 00:36:00;;;;;;;7.63;3.55;;;;;;;;;;5093389;28;20025;-72
2021/06/15 00:38:26;;;;;;;9.15;4.10;;;;;;;;;;5093185;28;20105;-71
2021/06/15 00:40:52;;;;;;;7.60;3.28;;;;;;;;;;5092284;28;20284;-72
2021/06/15 00:43:18;;;;;;;7.28;3.25;;;;;;;;;;5093185;28;20077;-71
2021/06/15 00:45:44;;;;;;;6.95;3.25;;;;;;;;;;5092936;28;20028;-71
2021/06/15 00:48:43;;;;;;;7.35;3.30;;;;;;;;;;5092952;28;20475;-70
2021/06/15 00:51:09;;;;;;;9.43;3.78;;;;;;;;;;5091587;28;20040;-71
2021/06/15 00:53:36;;;;;;;8.55;4.03;;;;;;;;;;5092983;28;20020;-72
2021/06/15 00:56:02;;;;;;;6.55;3.30;;;;;;;;;;5092123;28;20035;-71
2021/06/15 00:58:28;;;;;;;5.63;3.47;;;;;;;;;;5074176;28;20032;-71
2021/06/15 01:00:54;;;;;;;8.57;3.63;;;;;;;;;;5086450;28;20022;-71
2021/06/15 01:03:20;;;;;;;5.28;3.30;;;;;;;;;;5092590;28;20028;-71
2021/06/15 01:05:47;;;;;;;5.93;3.53;;;;;;;;;;5092551;28;20064;-72
2021/06/15 01:08:16;;;;;;;4.80;3.47;;;;;;;;;;5092832;28;20023;-71
2021/06/15 01:10:52;;;;;;;10.10;3.95;;;;;;;;;;5092725;28;20030;-71
2021/06/15 01:13:24;;;;;;;8.27;3.55;;;;;;;;;;5091940;28;20487;-72
2021/06/15 01:15:50;;;;;;;6.15;3.17;;;;;;;;;;5091943;28;20493;-71
2021/06/15 01:18:19;;;;;;;12.05;3.50;;;;;;;;;;5092519;28;20474;-72
2021/06/15 01:20:47;;;;;;;9.65;3.58;;;;;;;;;;5092632;28;20046;-71
2021/06/15 01:23:32;;;;;;;8.27;3.17;;;;;;;;;;5092592;28;20085;-72
2021/06/15 01:26:17;;;;;;;7.83;3.50;;;;;;;;;;5092620;28;20036;-71
2021/06/15 01:28:43;;;;;;;5.72;3.35;;;;;;;;;;5091990;28;20286;-71
2021/06/15 01:31:13;;;;;;;10.27;3.45;;;;;;;;;;5082010;28;20025;-72
2021/06/15 01:33:41;;;;;;;7.80;4.25;;;;;;;;;;5072225;28;20025;-71
2021/06/15 01:36:09;;;;;;;9.07;4.15;;;;;;;;;;5072337;28;20472;-72
2021/06/15 01:38:40;;;;;;;9.27;3.67;;;;;;;;;;5072199;28;20032;-72
2021/06/15 01:41:10;;;;;;;9.55;4.90;;;;;;;;;;5072209;28;20016;-71
2021/06/15 01:43:48;;;;;;;6.40;3.40;;;;;;;;;;5072110;28;20024;-72
2021/06/15 01:46:15;;;;;;;7.68;3.60;;;;;;;;;;5072045;28;20027;-71
2021/06/15 01:49:02;;;;;;;10.70;3.58;;;;;;;;;;5086898;28;20032;-71
2021/06/15 01:51:30;;;;;;;8.68;3.72;;;;;;;;;;5092532;28;20069;-72
2021/06/15 01:54:00;;;;;;;9.10;4.20;;;;;;;;;;5097215;28;20119;-71
2021/06/15 01:56:29;;;;;;;4.60;3.28;;;;;;;;;;5096568;28;20424;-72
2021/06/15 01:58:57;;;;;;;5.90;3.83;;;;;;;;;;5096625;28;20074;-71
2021/06/15 02:01:23;;;;;;;10.07;3.92;;;;;;;;;;5077489;28;20025;-71
2021/06/15 02:03:52;;;;;;;7.90;4.15;;;;;;;;;;5073245;28;20032;-71
2021/06/15 02:06:21;;;;;;;8.95;3.60;;;;;;;;;;5091926;28;20024;-71
2021/06/15 02:08:48;;;;;;;7.40;3.35;;;;;;;;;;5092147;28;20066;-71
2021/06/15 02:11:17;;;;;;;4.82;3.47;;;;;;;;;;5092295;28;20059;-72
2021/06/15 02:13:47;;;;;;;5.07;3.50;;;;;;;;;;5092122;28;20482;-71
2021/06/15 02:16:14;;;;;;;7.20;3.45;;;;;;;;;;5072427;28;20025;-71
2021/06/15 02:18:42;;;;;;;7.35;3.67;;;;;;;;;;5071857;28;20384;-71
2021/06/15 02:21:10;;;;;;;8.30;4.53;;;;;;;;;;5072755;28;20024;-72
2021/06/15 02:23:37;;;;;;;10.18;4.10;;;;;;;;;;5071759;28;20525;-72
2021/06/15 02:26:05;;;;;;;10.88;3.90;;;;;;;;;;5071982;28;20070;-71
2021/06/15 02:28:31;;;;;;;12.00;4.30;;;;;;;;;;5072151;28;20438;-72
2021/06/15 02:30:59;;;;;;;4.22;3.20;;;;;;;;;;5071698;28;20082;-72
2021/06/15 02:33:27;;;;;;;5.30;3.75;;;;;;;;;;5071965;28;20044;-72
2021/06/15 02:35:57;;;;;;;6.57;3.78;;;;;;;;;;5071762;28;20032;-71
2021/06/15 02:38:34;;;;;;;8.93;3.75;;;;;;;;;;5072524;28;20025;-72
2021/06/15 02:41:05;;;;;;;8.27;3.90;;;;;;;;;;5074762;28;20479;-72
2021/06/15 02:43:32;;;;;;;7.47;3.83;;;;;;;;;;5075028;28;20025;-72
2021/06/15 02:45:58;;;;;;;5.82;3.42;;;;;;;;;;5075151;28;20085;-71
2021/06/15 02:48:25;;;;;;;6.93;3.72;;;;;;;;;;5075089;28;20017;-71
2021/06/15 02:50:53;;;;;;;9.45;3.80;;;;;;;;;;5075152;28;20028;-71
2021/06/15 02:53:23;;;;;;;12.65;4.70;;;;;;;;;;5074998;28;20374;-71
2021/06/15 02:55:59;;;;;;;8.13;3.75;;;;;;;;;;5074732;28;20021;-71
2021/06/15 02:58:26;;;;;;;7.97;4.05;;;;;;;;;;5074801;28;20029;-71
2021/06/15 03:00:52;;;;;;;10.70;4.47;;;;;;;;;;5088550;28;20038;-72
2021/06/15 03:03:18;;;;;;;12.82;4.53;;;;;;;;;;5094994;28;20028;-72
2021/06/15 03:05:44;;;;;;;8.57;3.35;;;;;;;;;;5094609;28;20448;-72
2021/06/15 03:08:10;;;;;;;11.60;4.10;;;;;;;;;;5095225;28;20425;-72
2021/06/15 03:10:37;;;;;;;5.03;3.45;;;;;;;;;;5094749;28;20019;-72
2021/06/15 03:13:17;;;;;;;8.00;3.80;;;;;;;;;;5094284;28;20078;-72
2021/06/15 03:15:44;;;;;;;7.43;4.15;;;;;;;;;;5094686;28;20024;-72
2021/06/15 03:18:29;;;;;;;9.23;4.57;;;;;;;;;;5094878;28;20550;-71
2021/06/15 03:20:58;;;;;;;7.35;3.58;;;;;;;;;;5094764;28;20028;-71
2021/06/15 03:23:34;;;;;;;6.78;3.75;;;;;;;;;;5094504;28;20111;-72
2021/06/15 03:26:03;;;;;;;9.43;4.03;;;;;;;;;;5094562;28;20035;-72
2021/06/15 03:28:30;;;;;;;9.38;4.03;;;;;;;;;;5094622;28;20548;-71
2021/06/15 03:30:56;;;;;;;7.88;4.00;;;;;;;;;;5093699;28;20099;-72
2021/06/15 03:33:23;;;;;;;9.13;4.15;;;;;;;;;;5094489;28;20642;-71
2021/06/15 03:35:54;;;;;;;7.15;3.83;;;;;;;;;;5094441;28;20524;-71
2021/06/15 03:38:20;;;;;;;8.63;3.85;;;;;;;;;;5094170;28;20034;-71
2021/06/15 03:40:49;;;;;;;8.20;3.78;;;;;;;;;;5094335;28;20051;-71
2021/06/15 03:43:16;;;;;;;6.85;4.03;;;;;;;;;;5094639;28;20028;-72
2021/06/15 03:45:47;;;;;;;17.70;5.68;;;;;;;;;;5094093;28;20024;-71
2021/06/15 03:48:13;;;;;;;7.50;4.15;;;;;;;;;;5093532;28;20021;-71
2021/06/15 03:50:40;;;;;;;7.43;3.83;;;;;;;;;;5093665;28;20028;-72
2021/06/15 03:53:08;;;;;;;6.78;5.07;;;;;;;;;;5094021;28;20016;-72
2021/06/15 03:55:37;;;;;;;4.85;3.85;;;;;;;;;;5093962;28;20103;-71
2021/06/15 03:58:04;;;;;;;7.72;4.90;;;;;;;;;;5084056;28;20033;-71
2021/06/15 04:00:32;;;;;;;6.50;4.05;;;;;;;;;;5084344;28;20600;-71
2021/06/15 04:02:59;;;;;;;9.43;4.13;;;;;;;;;;5093085;28;20051;-72
2021/06/15 04:05:27;;;;;;;8.73;3.78;;;;;;;;;;5093543;28;20047;-71
2021/06/15 04:07:54;;;;;;;10.50;3.90;;;;;;;;;;5093642;28;20032;-72
2021/06/15 04:10:20;;;;;;;10.38;5.53;;;;;;;;;;5093854;28;20028;-71
2021/06/15 04:12:46;;;;;;;6.40;4.10;;;;;;;;;;5093767;28;20024;-72
2021/06/15 04:15:13;;;;;;;8.77;4.00;;;;;;;;;;5093591;28;20077;-72
2021/06/15 04:17:45;;;;;;;9.45;3.85;;;;;;;;;;5093713;28;20024;-71
2021/06/15 04:20:12;;;;;;;10.15;4.75;;;;;;;;;;5092638;28;20483;-72
2021/06/15 04:22:43;;;;;;;7.53;3.97;;;;;;;;;;5093412;28;20364;-71
2021/06/15 04:25:10;;;;;;;8.55;3.70;;;;;;;;;;5093456;28;20020;-71
2021/06/15 04:27:37;;;;;;;10.63;3.70;;;;;;;;;;5092046;28;20382;-71
2021/06/15 04:30:04;;;;;;;11.50;4.53;;;;;;;;;;5093342;28;20084;-71
2021/06/15 04:32:32;;;;;;;7.25;4.05;;;;;;;;;;5093314;28;20024;-71
2021/06/15 04:35:00;;;;;;;9.85;3.63;;;;;;;;;;5092057;28;20489;-71
2021/06/15 04:37:26;;;;;;;4.45;3.50;;;;;;;;;;5092300;28;20024;-71
2021/06/15 04:39:56;;;;;;;7.53;3.95;;;;;;;;;;5093105;28;20031;-72
2021/06/15 04:42:37;;;;;;;16.83;4.07;;;;;;;;;;5093236;28;20028;-71
2021/06/15 04:45:03;;;;;;;7.45;3.45;;;;;;;;;;5091762;28;20078;-72
2021/06/15 04:47:36;;;;;;;9.23;4.38;;;;;;;;;;5093090;28;20044;-71
2021/06/15 04:50:14;;;;;;;12.45;5.40;;;;;;;;;;5093254;28;20019;-71
2021/06/15 04:52:42;;;;;;;9.98;3.25;;;;;;;;;;5093086;28;20040;-72
2021/06/15 04:55:08;;;;;;;7.40;3.58;;;;;;;;;;5092038;28;20475;-71
2021/06/15 04:57:38;;;;;;;8.55;3.60;;;;;;;;;;5087168;28;20028;-71
2021/06/15 05:00:05;;;;;;;7.65;3.53;;;;;;;;;;5079527;28;20392;-72
2021/06/15 05:02:31;;;;;;;6.95;3.10;;;;;;;;;;5092146;28;20028;-71
2021/06/15 05:04:57;;;;;;;7.15;3.30;;;;;;;;;;5092360;28;20120;-71
2021/06/15 05:07:24;;;;;;;14.02;3.75;;;;;;;;;;5092772;28;20141;-72
2021/06/15 05:09:51;;;;;;;9.38;3.70;;;;;;;;;;5092835;28;20045;-72
2021/06/15 05:12:19;;;;;;;6.25;3.25;;;;;;;;;;5091925;28;20055;-71
2021/06/15 05:14:45;;;;;;;8.30;3.40;;;;;;;;;;5092707;28;20030;-72
2021/06/15 05:17:12;;;;;;;8.27;3.42;;;;;;;;;;5092772;28;20024;-71
2021/06/15 05:19:39;;;;;;;9.52;3.40;;;;;;;;;;5092498;28;20024;-71
2021/06/15 05:22:10;;;;;;;10.88;3.15;;;;;;;;;;5092585;28;20024;-71
2021/06/15 05:24:50;;;;;;;7.38;4.50;;;;;;;;;;5092597;28;20084;-72
2021/06/15 05:27:20;;;;;;;7.32;4.05;;;;;;;;;;5092595;28;20109;-71
2021/06/15 05:29:46;;;;;;;9.80;4.07;;;;;;;;;;5091698;28;20020;-72
2021/06/15 05:32:13;;;;;;;10.32;4.15;;;;;;;;;;5092783;28;20019;-72
2021/06/15 05:34:39;;;;;;;8.15;3.55;;;;;;;;;;5092549;28;20031;-71
2021/06/15 05:37:06;;;;;;;10.35;4.07;;;;;;;;;;5092552;28;20107;-70
2021/06/15 05:39:35;;;;;;;6.65;3.35;;;;;;;;;;5094589;28;20035;-71
2021/06/15 05:42:01;;;;;;;8.88;3.95;;;;;;;;;;5095141;28;20379;-72
2021/06/15 05:44:27;;;;;;;13.07;4.22;;;;;;;;;;5093513;28;20031;-70
2021/06/15 05:46:53;;;;;;;8.43;4.55;;;;;;;;;;5092930;28;20025;-71
2021/06/15 05:49:20;;;;;;;11.02;4.15;;;;;;;;;;5087000;28;20103;-72
2021/06/15 05:51:46;;;;;;;9.30;3.17;;;;;;;;;;5072260;28;20099;-71
2021/06/15 05:54:12;;;;;;;5.88;3.88;;;;;;;;;;5089071;28;20442;-72
2021/06/15 05:56:38;;;;;;;6.13;3.40;;;;;;;;;;5097154;28;20440;-72
2021/06/15 05:59:04;;;;;;;11.57;3.90;;;;;;;;;;5076651;28;20048;-72
2021/06/15 06:01:30;;;;;;;8.55;3.50;;;;;;;;;;5078071;28;20079;-71
2021/06/15 06:04:08;;;;;;;8.80;3.50;;;;;;;;;;5094960;28;20370;-72
2021/06/15 06:09:19;;;;;;;6.78;3.10;;;;;;;;;;5078527;28;20054;-72
2021/06/15 06:11:45;;;;;;;6.85;3.20;;;;;;;;;;5071967;28;20452;-72
2021/06/15 06:14:12;;;;;;;9.52;3.67;;;;;;;;;;5080553;28;20020;-72
2021/06/15 06:16:40;;;;;;;9.60;3.13;;;;;;;;;;5079738;28;20031;-72
2021/06/15 06:19:06;;;;;;;12.30;4.00;;;;;;;;;;5076321;28;20063;-72
2021/06/15 06:21:32;;;;;;;8.82;3.63;;;;;;;;;;5085005;28;20032;-72
2021/06/15 06:24:00;;;;;;;6.35;2.80;;;;;;;;;;5091272;28;20585;-72
2021/06/15 06:26:26;;;;;;;12.20;3.50;;;;;;;;;;5084393;28;20035;-72
2021/06/15 06:28:52;;;;;;;8.50;3.72;;;;;;;;;;5083061;28;20025;-72
2021/06/15 06:31:19;;;;;;;7.63;3.20;;;;;;;;;;5076282;28;20627;-73
2021/06/15 06:33:45;;;;;;;10.75;4.20;;;;;;;;;;5080432;28;20027;-72
2021/06/15 06:36:11;;;;;;;9.07;3.17;;;;;;;;;;5085613;28;20020;-71
2021/06/15 06:38:37;;;;;;;7.68;3.60;;;;;;;;;;5075403;28;20467;-71
2021/06/15 06:41:03;;;;;;;8.35;3.90;;;;;;;;;;5075080;28;20383;-71
2021/06/15 06:43:29;;;;;;;6.93;3.10;;;;;;;;;;5078122;28;20024;-72
2021/06/15 06:45:55;;;;;;;5.55;3.38;;;;;;;;;;5093720;28;20023;-71
2021/06/15 06:48:22;;;;;;;12.32;4.05;;;;;;;;;;5090442;28;20104;-71
2021/06/15 06:50:48;;;;;;;7.43;3.88;;;;;;;;;;5074921;28;20044;-71
2021/06/15 06:53:14;;;;;;;8.85;3.33;;;;;;;;;;5077797;28;20051;-71
2021/06/15 06:55:40;;;;;;;13.57;3.95;;;;;;;;;;5095290;28;20056;-71
2021/06/15 06:58:06;;;;;;;7.35;3.33;;;;;;;;;;5085294;28;20029;-71
2021/06/15 07:00:33;;;;;;;8.15;3.88;;;;;;;;;;5085736;28;20028;-71
2021/06/15 07:02:59;;;;;;;6.00;3.40;;;;;;;;;;5099798;28;20456;-71
2021/06/15 07:05:25;;;;;;;6.07;3.17;;;;;;;;;;5107292;28;20455;-71
2021/06/15 07:07:52;;;;;;;6.80;3.22;;;;;;;;;;5104531;28;20099;-71
2021/06/15 07:10:19;;;;;;;6.22;3.10;;;;;;;;;;5091264;28;20020;-72
2021/06/15 07:12:45;;;;;;;4.10;3.33;;;;;;;;;;5095811;28;20032;-72
2021/06/15 07:15:12;;;;;;;6.07;3.10;;;;;;;;;;5098195;28;20035;-71
2021/06/15 07:17:38;;;;;;;6.18;2.70;;;;;;;;;;5087271;28;20028;-72
2021/06/15 07:20:05;;;;;;;4.53;2.70;;;;;;;;;;5089145;28;20024;-72
2021/06/15 07:22:31;;;;;;;8.35;3.55;;;;;;;;;;5107991;28;20024;-72
2021/06/15 07:24:57;;;;;;;10.20;2.97;;;;;;;;;;5110443;28;20032;-72
2021/06/15 07:27:23;;;;;;;5.18;2.90;;;;;;;;;;5097228;28;20028;-72
2021/06/15 07:29:50;;;;;;;6.88;2.72;;;;;;;;;;5095500;28;20028;-71
2021/06/15 07:32:16;;;;;;;5.70;3.03;;;;;;;;;;5088203;28;20020;-72
2021/06/15 07:34:42;;;;;;;8.52;3.85;;;;;;;;;;5095024;28;20531;-71
2021/06/15 07:37:08;;;;;;;7.93;2.63;;;;;;;;;;5106583;28;20114;-73
2021/06/15 07:39:34;;;;;;;7.78;3.00;;;;;;;;;;5081982;28;20029;-72
2021/06/15 07:42:01;;;;;;;8.70;3.05;;;;;;;;;;5095579;28;20478;-72
2021/06/15 07:44:27;;;;;;;9.00;3.15;;;;;;;;;;5105322;28;20467;-71
2021/06/15 07:46:55;;;;;;;7.88;3.70;;;;;;;;;;5105432;28;20030;-71
2021/06/15 07:49:21;;;;;;;5.45;2.55;;;;;;;;;;5096253;28;20016;-72
2021/06/15 07:51:47;;;;;;;7.43;2.30;;;;;;;;;;5114570;28;20023;-72
2021/06/15 07:54:13;;;;;;;7.30;3.65;;;;;;;;;;5102230;28;20077;-73
2021/06/15 07:56:39;;;;;;;12.43;3.10;;;;;;;;;;5092951;28;20024;-73
2021/06/15 07:59:05;;;;;;;5.88;2.75;;;;;;;;;;5088642;28;20028;-72
2021/06/15 08:01:31;;;;;;;3.83;2.60;;;;;;;;;;5095703;28;20024;-72
2021/06/15 08:03:57;;;;;;;8.05;3.28;;;;;;;;;;5096295;28;20032;-72
2021/06/15 08:06:24;;;;;;;8.10;2.72;;;;;;;;;;5095985;28;20043;-72
2021/06/15 08:08:50;;;;;;;7.57;3.05;;;;;;;;;;5088249;28;20034;-72
2021/06/15 08:11:16;;;;;;;6.45;2.70;;;;;;;;;;5085468;28;20476;-72
2021/06/15 08:13:44;;;;;;;9.93;3.47;;;;;;;;;;5086834;28;20064;-71
2021/06/15 08:16:10;;;;;;;5.35;2.40;;;;;;;;;;5093910;28;20024;-71
2021/06/15 08:18:36;;;;;;;6.13;2.47;;;;;;;;;;5086775;28;20028;-73
2021/06/15 08:21:03;;;;;;;8.32;2.80;;;;;;;;;;5100363;28;20106;-73
2021/06/15 08:23:29;;;;;;;7.28;2.72;;;;;;;;;;5109413;28;20076;-71
2021/06/15 08:25:56;;;;;;;4.97;2.30;;;;;;;;;;5081165;28;20020;-71
2021/06/15 08:28:22;;;;;;;8.93;2.65;;;;;;;;;;5094068;28;20028;-72
2021/06/15 08:30:49;;;;;;;8.93;2.50;;;;;;;;;;5087933;28;20017;-72
2021/06/15 08:33:16;;;;;;;9.70;2.35;;;;;;;;;;5091979;28;20031;-72
2021/06/15 08:35:42;;;;;;;6.68;2.63;;;;;;;;;;5088382;28;20078;-71
2021/06/15 08:38:08;;;;;;;9.57;2.50;;;;;;;;;;5087723;28;20052;-72
2021/06/15 08:40:34;;;;;;;5.30;2.20;;;;;;;;;;5105315;28;20390;-73
2021/06/15 08:43:00;;;;;;;5.50;2.40;;;;;;;;;;5084075;28;20032;-72
2021/06/15 08:45:27;;;;;;;7.25;2.22;;;;;;;;;;5109368;28;20039;-71
2021/06/15 08:47:54;;;;;;;5.90;2.42;;;;;;;;;;5097216;28;20112;-71
2021/06/15 08:50:21;;;;;;;4.88;2.50;;;;;;;;;;5090403;28;20372;-70
2021/06/15 08:52:48;;;;;;;5.40;2.20;;;;;;;;;;5087670;28;20100;-71
2021/06/15 08:55:15;;;;;;;6.55;2.55;;;;;;;;;;5106884;28;20047;-70
2021/06/15 08:57:41;;;;;;;5.05;2.35;;;;;;;;;;5085184;28;20085;-71
2021/06/15 09:00:12;;;;;;;5.60;2.55;;;;;;;;;;5096039;28;20051;-71
2021/06/15 09:02:45;;;;;;;5.45;2.90;;;;;;;;;;5087709;28;20106;-70
2021/06/15 09:05:15;;;;;;;7.95;3.50;;;;;;;;;;5111178;28;20623;-71
2021/06/15 09:08:00;;;;;;;5.13;2.40;;;;;;;;;;5097518;28;20040;-71
2021/06/15 09:10:26;;;;;;;;;;;;;;;;;;5093572;28;20022;-71
2021/06/15 09:12:52;;;;;;;11.23;3.15;;;;;;;;;;5097346;28;19951;-71
2021/06/15 09:15:21;;;;;;;9.07;2.65;;;;;;;;;;5103900;28;20383;-70
2021/06/15 09:17:47;;;;;;;10.27;4.82;;;;;;;;;;5082999;28;20479;-71
2021/06/15 09:20:25;;;;;;;7.30;2.65;;;;;;;;;;5106520;28;20031;-71
2021/06/15 09:22:58;;;;;;;7.57;3.17;;;;;;;;;;5099330;28;20027;-70
2021/06/15 09:25:25;;;;;;;9.50;2.72;;;;;;;;;;5103928;28;20036;-70
2021/06/15 09:27:53;;;;;;;8.45;3.75;;;;;;;;;;5084616;28;20024;-70
2021/06/15 09:30:19;;;;;;;9.15;3.10;;;;;;;;;;5097853;28;20039;-71
2021/06/15 09:32:46;;;;;;;4.70;2.30;;;;;;;;;;5098647;28;20482;-71
2021/06/15 09:35:19;;;;;;;8.38;2.55;;;;;;;;;;5100051;28;20574;-70
2021/06/15 09:37:50;;;;;;;7.53;2.67;;;;;;;;;;5072182;28;20432;-70
2021/06/15 09:40:21;;;;;;;5.80;2.72;;;;;;;;;;5081704;28;20107;-70
2021/06/15 09:42:56;;;;;;;8.27;2.88;;;;;;;;;;5087693;28;20433;-70
2021/06/15 09:45:33;;;;;;;5.85;2.95;;;;;;;;;;5097043;28;20035;-70
2021/06/15 09:48:17;;;;;;;5.40;2.55;;;;;;;;;;5096796;28;20470;-70
2021/06/15 09:50:43;;;;;;;6.15;2.83;;;;;;;;;;5110252;28;20034;-71
2021/06/15 09:53:26;;;;;;;5.90;3.00;;;;;;;;;;5096500;28;20378;-71
2021/06/15 09:55:52;;;;;;;8.77;3.65;;;;;;;;;;5101758;28;20031;-71
2021/06/15 09:58:19;;;;;;;5.45;2.30;;;;;;;;;;5103707;28;20463;-71
2021/06/15 10:01:03;;;;;;;8.80;2.80;;;;;;;;;;5089528;28;20111;-70
2021/06/15 10:03:29;;;;;;;7.80;3.08;;;;;;;;;;5087220;28;20028;-70
2021/06/15 10:05:55;;;;;;;3.72;2.33;;;;;;;;;;5084886;28;20032;-70
2021/06/15 10:08:40;;;;;;;5.38;2.47;;;;;;;;;;5079018;28;20024;-71
2021/06/15 10:11:06;;;;;;;4.93;2.17;;;;;;;;;;5099878;28;20508;-71
2021/06/15 10:13:32;;;;;;;7.30;3.33;;;;;;;;;;5101730;28;20521;-71
2021/06/15 10:15:58;;;;;;;5.65;2.63;;;;;;;;;;5096974;28;20182;-71
2021/06/15 10:18:25;;;;;;;7.40;3.30;;;;;;;;;;5100333;28;20028;-71
2021/06/15 10:20:51;;;;;;;8.15;2.88;;;;;;;;;;5100016;28;20047;-71
2021/06/15 10:23:17;;;;;;;5.63;2.40;;;;;;;;;;5083165;28;20399;-71
2021/06/15 10:25:43;;;;;;;2.97;2.13;;;;;;;;;;5109119;28;20032;-71
2021/06/15 10:28:11;;;;;;;8.05;2.92;;;;;;;;;;5093687;28;20020;-70
2021/06/15 10:30:37;;;;;;;8.32;3.70;;;;;;;;;;5105637;28;20508;-71
2021/06/15 10:33:14;;;;;;;8.05;2.67;;;;;;;;;;5102550;28;20055;-71
2021/06/15 10:35:44;;;;;;;5.47;2.38;;;;;;;;;;5104041;28;20036;-71
2021/06/15 10:38:11;;;;;;;6.60;2.78;;;;;;;;;;5106678;28;20022;-71
2021/06/15 10:40:38;;;;;;;5.55;2.25;;;;;;;;;;5096539;28;20028;-72
2021/06/15 10:43:19;;;;;;;9.13;3.00;;;;;;;;;;5106638;28;20094;-72
2021/06/15 10:45:47;;;;;;;8.20;2.90;;;;;;;;;;5091432;28;20513;-72
2021/06/15 10:48:15;;;;;;;9.68;3.13;;;;;;;;;;5090524;28;20020;-72
2021/06/15 10:50:44;;;;;;;4.72;2.60;;;;;;;;;;5098229;28;20024;-71
2021/06/15 10:53:10;;;;;;;6.63;2.30;;;;;;;;;;5088549;28;20479;-71
2021/06/15 10:55:45;;;;;;;6.07;2.50;;;;;;;;;;5091304;28;20034;-71
2021/06/15 10:58:11;;;;;;;4.95;2.17;;;;;;;;;;5082505;28;20024;-71
2021/06/15 11:00:44;;;;;;;7.25;2.30;;;;;;;;;;5095161;28;20479;-70
2021/06/15 11:03:16;;;;;;;6.40;2.60;;;;;;;;;;5085322;28;20032;-70
2021/06/15 11:05:43;;;;;;;8.57;2.22;;;;;;;;;;5091637;28;20085;-70
2021/06/15 11:08:17;;;;;;;7.43;2.45;;;;;;;;;;5094201;28;20494;-71
2021/06/15 11:10:44;;;;;;;4.00;2.20;;;;;;;;;;5094045;28;20035;-70
2021/06/15 11:13:10;;;;;;;3.70;2.33;;;;;;;;;;5090568;28;20076;-68
2021/06/15 11:15:55;;;;;;;6.60;3.30;;;;;;;;;;5086929;28;20411;-70
2021/06/15 11:18:21;;;;;;;8.23;2.60;;;;;;;;;;5084305;28;20045;-70
2021/06/15 11:20:47;;;;;;;4.00;2.30;;;;;;;;;;5104306;28;20054;-71
2021/06/15 11:23:15;;;;;;;5.40;2.33;;;;;;;;;;5081072;28;20047;-71
2021/06/15 11:25:52;;;;;;;4.15;2.33;;;;;;;;;;5093593;28;20391;-71
2021/06/15 11:28:37;;;;;;;7.22;2.28;;;;;;;;;;5085973;28;20078;-71
2021/06/15 11:31:18;;;;;;;6.15;2.40;;;;;;;;;;5073057;28;20375;-71
2021/06/15 11:34:05;;;;;;;6.47;2.30;;;;;;;;;;5088836;28;20020;-71
2021/06/15 11:36:40;;;;;;;7.20;2.45;;;;;;;;;;5091570;28;20123;-71
2021/06/15 11:39:27;;;;;;;4.20;2.15;;;;;;;;;;5089419;28;20103;-71
2021/06/15 11:42:19;;;;;;;6.15;2.50;;;;;;;;;;5092151;28;20107;-71
2021/06/15 11:44:59;;;;;;;4.72;3.47;;;;;;;;;;5097357;28;20130;-70
2021/06/15 11:47:25;;;;;;;5.93;2.30;;;;;;;;;;5106264;28;20472;-71
2021/06/15 11:50:10;;;;;;;4.32;2.30;;;;;;;;;;5092923;28;20031;-71
2021/06/15 11:52:37;;;;;;;4.88;2.42;;;;;;;;;;5085803;28;20021;-71
2021/06/15 11:55:04;;;;;;;7.40;2.70;;;;;;;;;;5100741;28;20024;-72
2021/06/15 11:57:30;;;;;;;4.68;2.30;;;;;;;;;;5092361;28;20642;-70
2021/06/15 11:59:56;;;;;;;5.43;2.60;;;;;;;;;;5101290;28;20028;-71
2021/06/15 12:02:22;;;;;;;4.90;2.30;;;;;;;;;;5112600;28;20057;-71
2021/06/15 12:05:05;;;;;;;4.75;2.40;;;;;;;;;;5103225;28;20042;-71
2021/06/15 12:07:31;;;;;;;6.45;2.50;;;;;;;;;;5111234;28;20049;-72
2021/06/15 12:10:14;;;;;;;3.50;2.22;;;;;;;;;;5112803;28;20031;-72
2021/06/15 12:12:59;;;;;;;4.63;2.10;;;;;;;;;;5113809;28;20034;-71
2021/06/15 12:15:26;;;;;;;3.20;2.40;;;;;;;;;;5112347;28;20023;-71
2021/06/15 12:17:52;;;;;;;4.95;2.40;;;;;;;;;;5092663;28;20083;-71
2021/06/15 12:20:26;;;;;;;3.67;2.10;;;;;;;;;;5093372;28;20491;-73
2021/06/15 12:22:52;;;;;;;6.07;2.83;;;;;;;;;;5093753;28;20423;-73
2021/06/15 12:25:19;;;;;;;4.30;2.20;;;;;;;;;;5093526;28;20544;-72
2021/06/15 12:27:45;;;;;;;5.65;2.50;;;;;;;;;;5093499;28;20016;-71
2021/06/15 12:30:12;;;;;;;5.38;3.00;;;;;;;;;;5092367;28;20103;-72
2021/06/15 12:32:45;;;;;;;7.65;3.13;;;;;;;;;;5085074;28;20042;-71
2021/06/15 12:35:18;;;;;;;6.20;2.30;;;;;;;;;;5096271;28;20028;-72
2021/06/15 12:37:45;;;;;;;6.53;2.25;;;;;;;;;;5092041;28;20115;-72
2021/06/15 12:40:12;;;;;;;7.20;2.50;;;;;;;;;;5098565;28;20032;-72
2021/06/15 12:42:38;;;;;;;4.25;2.20;;;;;;;;;;5107563;28;20491;-72
2021/06/15 12:45:04;;;;;;;4.30;2.30;;;;;;;;;;5086470;28;20036;-72
2021/06/15 12:47:30;;;;;;;4.30;2.10;;;;;;;;;;5084798;28;20072;-73
2021/06/15 12:49:57;;;;;;;3.10;2.20;;;;;;;;;;5091592;28;20686;-72
2021/06/15 12:52:33;;;;;;;4.93;2.13;;;;;;;;;;5087830;28;20022;-71
2021/06/15 12:55:15;;;;;;;3.08;2.08;;;;;;;;;;5091715;28;20024;-71
2021/06/15 12:57:41;;;;;;;3.22;1.92;;;;;;;;;;5076473;28;20104;-71
2021/06/15 13:00:09;;;;;;;6.40;2.22;;;;;;;;;;5083103;28;20406;-72
2021/06/15 13:02:37;;;;;;;2.15;1.95;;;;;;;;;;5093602;28;20073;-73
2021/06/15 13:05:05;;;;;;;3.40;1.90;;;;;;;;;;5092502;28;20072;-72
2021/06/15 13:07:32;;;;;;;3.40;1.67;;;;;;;;;;5093421;28;20103;-74
2021/06/15 13:09:59;;;;;;;3.20;1.70;;;;;;;;;;5098257;28;20402;-71
2021/06/15 13:12:29;;;;;;;4.38;1.80;;;;;;;;;;5083701;28;20030;-72
2021/06/15 13:14:56;;;;;;;5.60;1.90;;;;;;;;;;5093012;28;20064;-72
2021/06/15 13:17:24;;;;;;;5.00;2.10;;;;;;;;;;5098479;28;20375;-73
2021/06/15 13:19:52;;;;;;;8.30;3.00;;;;;;;;;;5087862;28;20095;-74
2021/06/15 13:22:20;;;;;;;2.42;1.70;;;;;;;;;;5091015;28;20024;-74
2021/06/15 13:24:46;;;;;;;4.68;2.25;;;;;;;;;;5075527;28;20029;-74
2021/06/15 13:27:23;;;;;;;6.03;3.10;;;;;;;;;;5093571;28;20020;-74
2021/06/15 13:29:50;;;;;;;4.57;2.13;;;;;;;;;;5088781;28;20056;-72
2021/06/15 13:32:17;;;;;;;4.22;2.00;;;;;;;;;;5088240;28;20082;-71
2021/06/15 13:34:58;;;;;;;5.53;2.25;;;;;;;;;;5092567;28;20099;-73
2021/06/15 13:37:38;;;;;;;7.85;2.40;;;;;;;;;;5091504;28;20490;-73
2021/06/15 13:40:08;;;;;;;7.95;2.28;;;;;;;;;;5090257;28;20036;-74
2021/06/15 13:42:35;;;;;;;4.43;2.40;;;;;;;;;;5087558;28;20124;-73
2021/06/15 13:45:01;;;;;;;4.75;2.10;;;;;;;;;;5080583;28;20020;-73
2021/06/15 13:47:27;;;;;;;7.43;2.78;;;;;;;;;;5093131;28;20077;-71
2021/06/15 13:49:53;;;;;;;5.35;2.60;;;;;;;;;;5078547;28;20380;-72
2021/06/15 13:52:19;;;;;;;3.72;2.15;;;;;;;;;;5091567;28;20024;-72
2021/06/15 13:54:45;;;;;;;5.45;2.10;;;;;;;;;;5098189;28;20024;-74
2021/06/15 13:57:11;;;;;;;5.57;2.25;;;;;;;;;;5089538;28;20537;-73
2021/06/15 13:59:37;;;;;;;3.88;1.98;;;;;;;;;;5095476;28;20020;-72
2021/06/15 14:02:03;;;;;;;3.58;1.95;;;;;;;;;;5108841;28;20058;-72
2021/06/15 14:04:29;;;;;;;6.93;2.55;;;;;;;;;;5096937;28;20484;-73
2021/06/15 14:06:55;;;;;;;6.93;2.67;;;;;;;;;;5108082;28;20035;-71
2021/06/15 14:09:21;;;;;;;3.63;2.08;;;;;;;;;;5093330;28;20031;-73
2021/06/15 14:11:48;;;;;;;6.72;2.10;;;;;;;;;;5103552;28;20469;-73
2021/06/15 14:14:14;;;;;;;8.05;2.00;;;;;;;;;;5098672;28;20059;-72
2021/06/15 14:16:40;;;;;;;3.50;1.90;;;;;;;;;;5078578;28;20031;-73
2021/06/15 14:19:06;;;;;;;3.97;2.10;;;;;;;;;;5077955;28;20162;-72
2021/06/15 14:21:37;;;;;;;6.78;2.47;;;;;;;;;;5084004;28;20553;-72
2021/06/15 14:24:07;;;;;;;5.63;2.20;;;;;;;;;;5076113;28;20054;-73
2021/06/15 14:26:33;;;;;;;6.00;2.35;;;;;;;;;;5081670;28;20062;-72
2021/06/15 14:28:59;;;;;;;4.03;2.08;;;;;;;;;;5086970;28;20049;-72
2021/06/15 14:31:25;;;;;;;2.38;2.10;;;;;;;;;;5085108;28;20035;-72
2021/06/15 14:33:51;;;;;;;4.05;1.98;;;;;;;;;;5074847;28;20028;-72
2021/06/15 14:36:17;;;;;;;3.28;2.08;;;;;;;;;;5101084;28;20044;-71
2021/06/15 14:38:45;;;;;;;3.92;1.80;;;;;;;;;;5111147;28;20417;-73
2021/06/15 14:41:11;;;;;;;4.25;1.98;;;;;;;;;;5091846;28;20048;-73
2021/06/15 14:43:37;;;;;;;4.68;2.05;;;;;;;;;;5086002;28;20518;-72
2021/06/15 14:46:03;;;;;;;3.97;2.20;;;;;;;;;;5096456;28;20068;-73
2021/06/15 14:48:31;;;;;;;2.40;1.70;;;;;;;;;;5093016;28;20027;-73
2021/06/15 14:50:57;;;;;;;3.70;1.85;;;;;;;;;;5092048;28;20024;-72
2021/06/15 14:53:23;;;;;;;2.95;2.10;;;;;;;;;;5083336;28;20383;-73
2021/06/15 14:55:49;;;;;;;3.10;1.65;;;;;;;;;;5085233;28;20034;-74